createdAt,value
2022-08-27T00:00:47.239Z,100245.25
2022-08-27T00:03:14.119Z,100242.03
2022-08-27T00:05:41.321Z,100239.09
2022-08-27T00:08:09.769Z,100231.94
2022-08-27T00:10:36.522Z,100237.44
2022-08-27T00:13:03.181Z,100233.97
2022-08-27T00:15:30.074Z,100243.38
2022-08-27T00:17:56.935Z,100245.44
2022-08-27T00:20:26.017Z,100237.28
2022-08-27T00:22:53.445Z,100234.06
2022-08-27T00:25:20.958Z,100226.22
2022-08-27T00:27:47.668Z,100223.25
2022-08-27T00:30:16.448Z,100217.56
2022-08-27T00:32:43.438Z,100225.41
2022-08-27T00:35:11.633Z,100219.66
2022-08-27T00:37:38.461Z,100225.97
2022-08-27T00:40:07.915Z,100236.97
2022-08-27T00:42:34.596Z,100236.66
2022-08-27T00:45:01.377Z,100232.25
2022-08-27T00:47:30.652Z,100226.28
2022-08-27T00:50:18.862Z,100239.09
2022-08-27T00:52:53.068Z,100238.00
2022-08-27T00:55:24.844Z,100234.59
2022-08-27T00:58:00.297Z,100242.16
2022-08-27T01:00:29.848Z,100244.34
2022-08-27T01:02:56.491Z,100244.34
2022-08-27T01:05:26.438Z,100239.44
2022-08-27T01:07:56.575Z,100240.69
2022-08-27T01:10:25.353Z,100239.56
2022-08-27T01:12:54.169Z,100248.91
2022-08-27T01:15:22.366Z,100248.34
2022-08-27T01:17:49.417Z,100248.63
2022-08-27T01:20:23.182Z,100252.19
2022-08-27T01:23:04.137Z,100251.63
2022-08-27T01:25:31.111Z,100241.56
2022-08-27T01:28:00.566Z,100247.47
2022-08-27T01:30:27.639Z,100247.53
2022-08-27T01:32:54.722Z,100253.19
2022-08-27T01:35:21.941Z,100245.56
2022-08-27T01:37:50.489Z,100249.38
2022-08-27T01:40:20.289Z,100250.72
2022-08-27T01:42:49.597Z,100254.16
2022-08-27T01:45:24.581Z,100250.88
2022-08-27T01:47:51.688Z,100253.03
2022-08-27T01:50:23.338Z,100261.03
2022-08-27T01:52:51.342Z,100256.19
2022-08-27T01:55:20.608Z,100254.84
2022-08-27T01:57:48.388Z,100259.06
2022-08-27T02:00:25.125Z,100253.66
2022-08-27T02:02:52.142Z,100253.31
2022-08-27T02:05:19.227Z,100250.56
2022-08-27T02:07:46.737Z,100254.16
2022-08-27T02:10:19.481Z,100248.69
2022-08-27T02:12:46.658Z,100250.06
2022-08-27T02:15:13.990Z,100247.63
2022-08-27T02:17:44.015Z,100250.31
2022-08-27T02:20:11.133Z,100241.06
2022-08-27T02:22:38.614Z,100251.06
2022-08-27T02:25:07.094Z,100253.72
2022-08-27T02:27:37.063Z,100249.75
2022-08-27T02:30:04.624Z,100250.00
2022-08-27T02:32:32.028Z,100246.66
2022-08-27T02:34:59.267Z,100252.91
2022-08-27T02:37:25.961Z,100253.38
2022-08-27T02:39:54.621Z,100244.63
2022-08-27T02:42:21.363Z,100251.72
2022-08-27T02:44:48.395Z,100260.94
2022-08-27T02:47:16.693Z,100255.31
2022-08-27T02:49:44.391Z,100253.59
2022-08-27T02:52:11.432Z,100261.00
2022-08-27T02:54:38.204Z,100256.53
2022-08-27T02:57:05.862Z,100263.00
2022-08-27T02:59:32.510Z,100263.00
2022-08-27T03:01:59.234Z,100255.44
2022-08-27T03:04:27.911Z,100254.13
2022-08-27T03:06:55.426Z,100259.41
2022-08-27T03:09:22.110Z,100259.03
2022-08-27T03:11:50.998Z,100263.66
2022-08-27T03:14:17.599Z,100263.50
2022-08-27T03:16:48.418Z,100257.63
2022-08-27T03:19:19.804Z,100261.19
2022-08-27T03:21:54.497Z,100268.25
2022-08-27T03:24:21.729Z,100253.41
2022-08-27T03:26:53.897Z,100258.41
2022-08-27T03:29:20.990Z,100263.50
2022-08-27T03:31:47.758Z,100260.38
2022-08-27T03:34:19.773Z,100269.19
2022-08-27T03:36:48.744Z,100257.41
2022-08-27T03:39:15.416Z,100260.63
2022-08-27T03:41:54.982Z,100261.75
2022-08-27T03:44:23.854Z,100258.25
2022-08-27T03:46:51.957Z,100260.47
2022-08-27T03:49:21.382Z,100254.69
2022-08-27T03:51:49.967Z,100256.25
2022-08-27T03:54:16.767Z,100258.06
2022-08-27T03:56:43.450Z,100259.31
2022-08-27T03:59:10.155Z,100265.47
2022-08-27T04:01:39.159Z,100261.97
2022-08-27T04:04:06.055Z,100261.75
2022-08-27T04:06:35.127Z,100264.00
2022-08-27T04:09:02.321Z,100265.31
2022-08-27T04:11:29.429Z,100257.84
2022-08-27T04:13:56.452Z,100261.41
2022-08-27T04:16:23.106Z,100254.88
2022-08-27T04:18:49.856Z,100260.28
2022-08-27T04:21:16.557Z,100258.03
2022-08-27T04:23:43.296Z,100252.72
2022-08-27T04:26:11.154Z,100252.50
2022-08-27T04:28:39.296Z,100252.91
2022-08-27T04:31:16.649Z,100254.03
2022-08-27T04:33:50.652Z,100258.66
2022-08-27T04:36:18.185Z,100263.22
2022-08-27T04:38:44.902Z,100266.03
2022-08-27T04:41:21.223Z,100265.25
2022-08-27T04:43:58.929Z,100263.56
2022-08-27T04:46:28.673Z,100264.88
2022-08-27T04:48:57.394Z,100263.72
2022-08-27T04:51:24.950Z,100267.34
2022-08-27T04:53:51.848Z,100272.25
2022-08-27T04:56:21.258Z,100263.81
2022-08-27T04:58:48.475Z,100265.25
2022-08-27T05:01:21.889Z,100265.47
2022-08-27T05:03:48.921Z,100268.34
2022-08-27T05:06:16.074Z,100264.38
2022-08-27T05:08:42.791Z,100269.41
2022-08-27T05:11:12.345Z,100275.88
2022-08-27T05:13:39.815Z,100274.47
2022-08-27T05:16:08.814Z,100265.69
2022-08-27T05:18:42.367Z,100268.97
2022-08-27T05:21:27.236Z,100282.94
2022-08-27T05:23:57.332Z,100277.03
2022-08-27T05:26:24.221Z,100272.97
2022-08-27T05:28:51.401Z,100274.56
2022-08-27T05:31:19.575Z,100269.31
2022-08-27T05:33:46.946Z,100271.50
2022-08-27T05:36:22.674Z,100275.09
2022-08-27T05:38:50.332Z,100266.41
2022-08-27T05:41:19.799Z,100271.31
2022-08-27T05:43:50.191Z,100265.72
2022-08-27T05:46:20.240Z,100271.47
2022-08-27T05:48:48.059Z,100268.44
2022-08-27T05:51:25.184Z,100274.66
2022-08-27T05:53:56.446Z,100265.47
2022-08-27T05:56:25.006Z,100268.84
2022-08-27T05:59:10.198Z,100271.72
2022-08-27T06:01:44.924Z,100262.81
2022-08-27T06:04:11.891Z,100270.25
2022-08-27T06:06:45.361Z,100270.50
2022-08-27T06:09:14.537Z,100266.34
2022-08-27T06:11:41.510Z,100267.03
2022-08-27T06:14:11.438Z,100267.66
2022-08-27T06:16:38.489Z,100268.44
2022-08-27T06:19:06.719Z,100274.47
2022-08-27T06:21:33.514Z,100275.97
2022-08-27T06:24:00.443Z,100280.00
2022-08-27T06:26:27.986Z,100273.91
2022-08-27T06:29:03.508Z,100272.63
2022-08-27T06:31:35.121Z,100282.03
2022-08-27T06:34:07.474Z,100281.38
2022-08-27T06:36:38.150Z,100280.53
2022-08-27T06:39:13.276Z,100290.41
2022-08-27T06:41:42.711Z,100287.31
2022-08-27T06:44:22.247Z,100290.00
2022-08-27T06:46:49.345Z,100288.13
2022-08-27T06:49:16.092Z,100291.41
2022-08-27T06:51:45.731Z,100287.47
2022-08-27T06:54:29.364Z,100294.84
2022-08-27T06:57:01.882Z,100296.75
2022-08-27T06:59:28.504Z,100299.94
2022-08-27T07:01:55.245Z,100301.41
2022-08-27T07:04:30.741Z,100305.03
2022-08-27T07:07:00.665Z,100302.81
2022-08-27T07:09:27.330Z,100307.16
2022-08-27T07:11:54.775Z,100304.97
2022-08-27T07:14:21.953Z,100321.69
2022-08-27T07:16:49.479Z,100312.34
2022-08-27T07:19:19.214Z,100318.84
2022-08-27T07:21:50.639Z,100320.78
2022-08-27T07:24:17.687Z,100322.63
2022-08-27T07:26:44.648Z,100329.97
2022-08-27T07:29:15.226Z,100321.69
2022-08-27T07:31:42.225Z,100332.31
2022-08-27T07:34:08.918Z,100339.34
2022-08-27T07:36:36.034Z,100333.50
2022-08-27T07:39:02.777Z,100321.72
2022-08-27T07:41:31.810Z,100342.22
2022-08-27T07:44:20.932Z,100335.38
2022-08-27T07:46:54.516Z,100332.38
2022-08-27T07:49:22.238Z,100335.03
2022-08-27T07:51:49.651Z,100339.94
2022-08-27T07:54:16.879Z,100333.44
2022-08-27T07:56:44.285Z,100332.03
2022-08-27T07:59:24.223Z,100333.56
2022-08-27T08:01:51.676Z,100336.56
2022-08-27T08:04:20.451Z,100328.97
2022-08-27T08:06:47.572Z,100330.59
2022-08-27T08:09:14.623Z,100329.00
2022-08-27T08:11:41.329Z,100339.75
2022-08-27T08:14:07.967Z,100338.34
2022-08-27T08:16:34.739Z,100339.75
2022-08-27T08:19:02.061Z,100344.34
2022-08-27T08:21:28.821Z,100345.94
2022-08-27T08:23:55.576Z,100351.03
2022-08-27T08:26:23.145Z,100343.59
2022-08-27T08:28:49.781Z,100344.22
2022-08-27T08:31:16.571Z,100343.88
2022-08-27T08:33:43.356Z,100351.22
2022-08-27T08:36:12.895Z,100354.69
2022-08-27T08:38:40.416Z,100358.81
2022-08-27T08:41:26.486Z,100353.03
2022-08-27T08:43:53.832Z,100352.41
2022-08-27T08:46:37.841Z,100355.06
2022-08-27T08:49:23.654Z,100358.91
2022-08-27T08:51:52.014Z,100356.81
2022-08-27T08:54:21.166Z,100353.19
2022-08-27T08:57:02.051Z,100351.78
2022-08-27T08:59:34.709Z,100350.75
2022-08-27T09:02:01.418Z,100355.50
2022-08-27T09:04:30.618Z,100342.25
2022-08-27T09:07:08.976Z,100343.56
2022-08-27T09:10:12.020Z,100352.28
2022-08-27T09:12:52.453Z,100348.19
2022-08-27T09:15:26.133Z,100354.06
2022-08-27T09:17:54.899Z,100350.09
2022-08-27T09:20:27.422Z,100351.19
2022-08-27T09:23:31.310Z,100357.06
2022-08-27T09:26:00.922Z,100358.84
2022-08-27T09:28:59.822Z,100353.31
2022-08-27T09:32:01.847Z,100359.44
2022-08-27T09:37:51.257Z,100362.41
2022-08-27T09:40:32.303Z,100354.81
2022-08-27T09:43:11.005Z,100357.94
2022-08-27T09:45:57.624Z,100360.72
2022-08-27T09:48:38.171Z,100358.19
2022-08-27T09:51:21.719Z,100357.47
2022-08-27T09:53:55.900Z,100354.63
2022-08-27T09:56:43.615Z,100354.16
2022-08-27T09:59:13.097Z,100351.19
2022-08-27T10:02:18.372Z,100354.59
2022-08-27T10:04:51.972Z,100353.59
2022-08-27T10:07:33.324Z,100349.25
2022-08-27T10:10:20.326Z,100354.66
2022-08-27T10:12:51.857Z,100359.81
2022-08-27T10:15:18.611Z,100349.47
2022-08-27T10:18:07.851Z,100353.69
2022-08-27T10:21:18.545Z,100352.78
2022-08-27T10:24:02.261Z,100358.06
2022-08-27T10:26:55.665Z,100358.25
2022-08-27T10:33:13.837Z,100352.69
2022-08-27T10:35:55.094Z,100349.47
2022-08-27T10:39:13.925Z,100353.41
2022-08-27T10:42:15.048Z,100359.34
2022-08-27T10:45:31.052Z,100356.66
2022-08-27T10:48:56.036Z,100361.22
2022-08-27T10:52:03.228Z,100369.88
2022-08-27T10:55:27.075Z,100369.44
2022-08-27T11:03:58.427Z,100387.75
2022-08-27T11:07:00.647Z,100379.03
2022-08-27T11:09:57.983Z,100377.78
2022-08-27T11:12:55.421Z,100383.19
2022-08-27T11:18:59.607Z,100376.91
2022-08-27T11:21:39.281Z,100373.56
2022-08-27T11:28:52.414Z,100365.66
2022-08-27T11:31:44.638Z,100361.53
2022-08-27T11:41:16.624Z,100372.75
2022-08-27T11:43:50.994Z,100376.19
2022-08-27T11:50:20.586Z,100366.75
2022-08-27T12:00:20.042Z,100369.59
2022-08-27T12:03:29.401Z,100374.19
2022-08-27T12:06:07.365Z,100372.69
2022-08-27T12:09:26.219Z,100372.84
2022-08-27T12:19:29.749Z,100377.03
2022-08-27T12:22:11.936Z,100372.72
2022-08-27T12:25:20.566Z,100372.72
2022-08-27T12:28:35.715Z,100370.72
2022-08-27T12:31:10.348Z,100375.38
2022-08-27T12:33:55.221Z,100371.41
2022-08-27T12:36:57.112Z,100364.56
2022-08-27T12:39:37.140Z,100367.00
2022-08-27T12:42:23.530Z,100371.84
2022-08-27T12:48:12.698Z,100379.38
2022-08-27T12:50:53.922Z,100375.41
2022-08-27T12:54:05.284Z,100372.72
2022-08-27T12:57:37.846Z,100370.19
2022-08-27T13:04:32.630Z,100370.41
2022-08-27T13:07:37.859Z,100364.25
2022-08-27T13:10:19.468Z,100362.97
2022-08-27T13:12:48.051Z,100364.06
2022-08-27T13:18:14.735Z,100361.53
2022-08-27T13:21:13.908Z,100353.69
2022-08-27T13:23:55.495Z,100354.00
2022-08-27T13:27:03.465Z,100353.47
2022-08-27T13:30:22.879Z,100349.13
2022-08-27T13:33:04.305Z,100354.84
2022-08-27T13:35:49.646Z,100340.94
2022-08-27T13:38:19.620Z,100341.50
2022-08-27T13:41:27.788Z,100347.78
2022-08-27T13:43:59.253Z,100343.13
2022-08-27T13:46:32.117Z,100343.13
2022-08-27T13:49:02.260Z,100340.97
2022-08-27T13:51:34.766Z,100348.56
2022-08-27T13:54:12.969Z,100346.66
2022-08-27T13:56:53.407Z,100342.84
2022-08-27T13:59:20.252Z,100346.41
2022-08-27T14:02:10.251Z,100344.47
2022-08-27T14:04:44.769Z,100340.41
2022-08-27T14:07:13.640Z,100338.47
2022-08-27T14:09:54.346Z,100338.47
2022-08-27T14:12:32.730Z,100340.66
2022-08-27T14:15:19.020Z,100341.50
2022-08-27T14:17:46.925Z,100340.41
2022-08-27T14:20:17.732Z,100337.69
2022-08-27T14:22:50.875Z,100336.88
2022-08-27T14:25:19.042Z,100339.84
2022-08-27T14:27:57.184Z,100342.03
2022-08-27T14:30:29.233Z,100343.09
2022-08-27T14:33:00.795Z,100340.69
2022-08-27T14:36:32.478Z,100348.56
2022-08-27T14:38:59.756Z,100337.13
2022-08-27T14:41:48.730Z,100343.94
2022-08-27T14:44:17.301Z,100341.50
2022-08-27T14:46:44.745Z,100342.56
2022-08-27T14:49:15.301Z,100345.03
2022-08-27T14:51:47.608Z,100342.59
2022-08-27T14:54:14.278Z,100340.97
2022-08-27T14:56:41.445Z,100341.22
2022-08-27T14:59:08.175Z,100345.03
2022-08-27T15:01:38.142Z,100340.97
2022-08-27T15:04:05.745Z,100343.41
2022-08-27T15:06:32.520Z,100338.75
2022-08-27T15:09:00.439Z,100348.56
2022-08-27T15:11:32.255Z,100345.84
2022-08-27T15:14:14.441Z,100338.50
2022-08-27T15:16:50.804Z,100347.75
2022-08-27T15:19:17.480Z,100341.22
2022-08-27T15:21:45.617Z,100345.31
2022-08-27T15:24:26.178Z,100340.94
2022-08-27T15:26:57.290Z,100355.09
2022-08-27T15:29:24.779Z,100350.50
2022-08-27T15:31:51.822Z,100354.00
2022-08-27T15:34:18.738Z,100348.56
2022-08-27T15:36:45.614Z,100352.94
2022-08-27T15:39:12.559Z,100355.09
2022-08-27T15:41:56.644Z,100347.47
2022-08-27T15:44:27.106Z,100347.47
2022-08-27T15:46:53.803Z,100346.38
2022-08-27T15:49:20.817Z,100348.56
2022-08-27T15:51:47.559Z,100345.00
2022-08-27T15:54:14.260Z,100346.88
2022-08-27T15:56:43.245Z,100342.56
2022-08-27T15:59:09.967Z,100345.28
2022-08-27T16:01:37.347Z,100349.94
2022-08-27T16:04:04.980Z,100349.94
2022-08-27T16:06:32.045Z,100349.91
2022-08-27T16:09:01.873Z,100346.66
2022-08-27T16:11:28.643Z,100341.47
2022-08-27T16:13:55.856Z,100346.38
2022-08-27T16:16:29.659Z,100346.38
2022-08-27T16:19:00.238Z,100348.31
2022-08-27T16:21:27.523Z,100337.66
2022-08-27T16:23:54.148Z,100348.81
2022-08-27T16:26:20.813Z,100350.72
2022-08-27T16:28:49.869Z,100344.22
2022-08-27T16:31:16.759Z,100346.13
2022-08-27T16:33:43.751Z,100342.56
2022-08-27T16:36:10.853Z,100344.22
2022-08-27T16:38:37.599Z,100337.97
2022-08-27T16:41:08.893Z,100336.88
2022-08-27T16:43:35.619Z,100334.94
2022-08-27T16:46:06.479Z,100334.09
2022-08-27T16:49:01.494Z,100337.91
2022-08-27T16:51:33.791Z,100339.31
2022-08-27T16:54:08.206Z,100340.09
2022-08-27T16:56:37.743Z,100344.19
2022-08-27T16:59:04.814Z,100337.31
2022-08-27T17:01:33.623Z,100340.31
2022-08-27T17:04:16.116Z,100341.47
2022-08-27T17:06:57.577Z,100337.06
2022-08-27T17:09:34.945Z,100337.84
2022-08-27T17:12:04.479Z,100334.31
2022-08-27T17:14:37.958Z,100334.88
2022-08-27T17:17:06.109Z,100336.75
2022-08-27T17:19:34.813Z,100338.34
2022-08-27T17:22:03.508Z,100341.31
2022-08-27T17:24:30.404Z,100339.13
2022-08-27T17:26:57.328Z,100346.19
2022-08-27T17:29:24.027Z,100348.13
2022-08-27T17:31:50.714Z,100348.41
2022-08-27T17:34:23.232Z,100353.00
2022-08-27T17:36:55.283Z,100354.88
2022-08-27T17:39:22.300Z,100355.69
2022-08-27T17:41:54.908Z,100358.06
2022-08-27T17:44:33.279Z,100365.66
2022-08-27T17:47:03.754Z,100360.22
2022-08-27T17:49:33.301Z,100363.50
2022-08-27T17:52:03.538Z,100365.63
2022-08-27T17:54:32.634Z,100370.44
2022-08-27T17:57:00.408Z,100370.41
2022-08-27T17:59:27.139Z,100372.00
2022-08-27T18:01:57.054Z,100376.28
2022-08-27T18:04:26.457Z,100375.47
2022-08-27T18:06:55.700Z,100373.97
2022-08-27T18:09:24.427Z,100380.47
2022-08-27T18:11:51.116Z,100381.31
2022-08-27T18:14:18.588Z,100384.31
2022-08-27T18:16:56.386Z,100395.78
2022-08-27T18:19:23.268Z,100389.88
2022-08-27T18:21:50.845Z,100400.03
2022-08-27T18:24:19.794Z,100398.50
2022-08-27T18:26:47.370Z,100410.78
2022-08-27T18:29:15.128Z,100407.09
2022-08-27T18:31:42.629Z,100404.59
2022-08-27T18:34:09.256Z,100421.44
2022-08-27T18:36:38.128Z,100417.44
2022-08-27T18:39:04.828Z,100418.50
2022-08-27T18:41:31.664Z,100428.75
2022-08-27T18:43:58.928Z,100427.88
2022-08-27T18:46:26.107Z,100428.34
2022-08-27T18:48:55.572Z,100430.16
2022-08-27T18:51:22.322Z,100442.44
2022-08-27T18:53:49.026Z,100441.25
2022-08-27T18:56:18.923Z,100439.69
2022-08-27T18:58:46.688Z,100439.97
2022-08-27T19:01:19.227Z,100446.56
2022-08-27T19:03:48.722Z,100443.28
2022-08-27T19:06:17.943Z,100446.00
2022-08-27T19:08:48.906Z,100449.72
2022-08-27T19:11:15.861Z,100458.69
2022-08-27T19:13:42.816Z,100452.44
2022-08-27T19:19:47.663Z,100464.31
2022-08-27T19:22:30.499Z,100471.31
2022-08-27T19:24:58.006Z,100468.78
2022-08-27T19:27:25.733Z,100478.75
2022-08-27T19:29:54.992Z,100477.91
2022-08-27T19:32:22.112Z,100480.41
2022-08-27T19:34:48.788Z,100481.81
2022-08-27T19:37:27.396Z,100492.75
2022-08-27T19:39:54.254Z,100489.19
2022-08-27T19:42:21.135Z,100496.94
2022-08-27T19:44:48.279Z,100499.25
2022-08-27T19:47:16.349Z,100506.41
2022-08-27T19:49:49.776Z,100508.31
2022-08-27T19:52:16.525Z,100511.66
2022-08-27T19:55:03.316Z,100508.06
2022-08-27T19:57:30.038Z,100507.44
2022-08-27T19:59:59.443Z,100504.88
2022-08-27T20:02:26.449Z,100507.66
2022-08-27T20:05:16.497Z,100510.78
2022-08-27T20:07:40.094Z,100507.59
2022-08-27T20:10:08.750Z,100507.09
2022-08-27T20:12:45.711Z,100513.97
2022-08-27T20:15:13.019Z,100510.19
2022-08-27T20:17:41.269Z,100513.28
2022-08-27T20:20:09.104Z,100521.19
2022-08-27T20:22:35.931Z,100526.81
2022-08-27T20:25:02.619Z,100521.22
2022-08-27T20:27:29.276Z,100529.25
2022-08-27T20:29:56.081Z,100529.22
2022-08-27T20:32:25.721Z,100531.13
2022-08-27T20:34:56.037Z,100537.81
2022-08-27T20:37:22.742Z,100539.56
2022-08-27T20:39:50.413Z,100542.13
2022-08-27T20:42:19.603Z,100539.19
2022-08-27T20:44:47.129Z,100547.19
2022-08-27T20:47:13.872Z,100543.88
2022-08-27T20:49:41.621Z,100539.03
2022-08-27T20:52:11.467Z,100540.88
2022-08-27T20:54:41.725Z,100535.00
2022-08-27T20:57:11.431Z,100550.69
2022-08-27T20:59:57.405Z,100545.44
2022-08-27T21:02:26.338Z,100552.47
2022-08-27T21:04:53.817Z,100549.69
2022-08-27T21:07:21.326Z,100544.75
2022-08-27T21:09:55.854Z,100547.28
2022-08-27T21:12:29.540Z,100547.41
2022-08-27T21:14:57.966Z,100547.72
2022-08-27T21:17:26.937Z,100552.72
2022-08-27T21:19:56.077Z,100550.94
2022-08-27T21:22:23.550Z,100549.28
2022-08-27T21:24:50.527Z,100548.75
2022-08-27T21:27:18.447Z,100549.59
2022-08-27T21:29:45.611Z,100550.25
2022-08-27T21:32:15.827Z,100553.19
2022-08-27T21:34:42.945Z,100545.31
2022-08-27T21:37:11.468Z,100548.56
2022-08-27T21:39:49.323Z,100546.97
2022-08-27T21:42:16.091Z,100564.19
2022-08-27T21:44:43.258Z,100557.38
2022-08-27T21:47:15.995Z,100562.84
2022-08-27T21:49:42.737Z,100569.44
2022-08-27T21:52:09.485Z,100570.94
2022-08-27T21:54:39.592Z,100565.00
2022-08-27T21:57:06.932Z,100568.09
2022-08-27T21:59:39.857Z,100573.03
2022-08-27T22:02:23.038Z,100563.34
2022-08-27T22:04:54.319Z,100562.81
2022-08-27T22:07:20.975Z,100566.72
2022-08-27T22:09:52.948Z,100568.66
2022-08-27T22:12:19.612Z,100570.56
2022-08-27T22:14:46.362Z,100576.03
2022-08-27T22:17:15.804Z,100576.50
2022-08-27T22:19:42.976Z,100569.09
2022-08-27T22:22:09.680Z,100572.06
2022-08-27T22:24:36.337Z,100580.19
2022-08-27T22:27:03.010Z,100581.41
2022-08-27T22:29:30.790Z,100582.19
2022-08-27T22:31:57.493Z,100587.59
2022-08-27T22:34:27.491Z,100584.16
2022-08-27T22:36:56.727Z,100590.19
2022-08-27T22:39:24.087Z,100585.84
2022-08-27T22:41:52.054Z,100585.59
2022-08-27T22:44:26.441Z,100584.59
2022-08-27T22:46:53.211Z,100587.97
2022-08-27T22:49:21.458Z,100588.66
2022-08-27T22:51:49.426Z,100588.66
2022-08-27T22:54:19.288Z,100590.09
2022-08-27T22:56:45.932Z,100591.13
2022-08-27T22:59:12.717Z,100588.41
2022-08-27T23:01:39.504Z,100589.44
2022-08-27T23:04:07.831Z,100584.91
2022-08-27T23:06:34.719Z,100583.88
2022-08-27T23:09:01.837Z,100592.16
2022-08-27T23:11:31.624Z,100594.44
2022-08-27T23:13:59.075Z,100589.03
2022-08-27T23:16:25.821Z,100589.47
2022-08-27T23:18:52.519Z,100586.59
2022-08-27T23:21:19.159Z,100586.59
2022-08-27T23:23:46.117Z,100591.72
2022-08-27T23:26:31.285Z,100591.09
2022-08-27T23:28:58.487Z,100581.84
2022-08-27T23:31:29.715Z,100583.31
2022-08-27T23:33:57.406Z,100579.22
2022-08-27T23:36:24.079Z,100571.00
2022-08-27T23:38:51.488Z,100577.25
2022-08-27T23:41:18.219Z,100576.44
2022-08-27T23:43:47.884Z,100576.63
2022-08-27T23:46:14.539Z,100567.34
2022-08-27T23:48:41.212Z,100576.22
2022-08-27T23:51:09.340Z,100572.91
2022-08-27T23:53:37.619Z,100572.13
2022-08-27T23:56:05.029Z,100575.66
2022-08-27T23:58:32.690Z,100563.69
